sensor_id;sensor_type;location;lat;lon;timestamp;P1;durP1;ratioP1;P2;durP2;ratioP2
48651;SDS011;34442;52.362;-1.302;2023-07-22T00:02:19;1.17;;;0.75;;
48651;SDS011;34442;52.362;-1.302;2023-07-22T00:04:45;1.45;;;0.60;;
48651;SDS011;34442;52.362;-1.302;2023-07-22T00:07:11;1.17;;;0.63;;
48651;SDS011;34442;52.362;-1.302;2023-07-22T00:09:36;1.00;;;0.82;;
48651;SDS011;34442;52.362;-1.302;2023-07-22T00:12:03;0.93;;;0.60;;
48651;SDS011;34442;52.362;-1.302;2023-07-22T00:14:29;1.85;;;0.65;;
48651;SDS011;34442;52.362;-1.302;2023-07-22T00:16:55;1.08;;;0.70;;
48651;SDS011;34442;52.362;-1.302;2023-07-22T00:19:20;0.65;;;0.60;;
48651;SDS011;34442;52.362;-1.302;2023-07-22T00:21:46;0.77;;;0.60;;
48651;SDS011;34442;52.362;-1.302;2023-07-22T00:24:11;1.02;;;0.70;;
48651;SDS011;34442;52.362;-1.302;2023-07-22T00:26:36;1.63;;;0.77;;
48651;SDS011;34442;52.362;-1.302;2023-07-22T00:29:02;0.60;;;0.60;;
48651;SDS011;34442;52.362;-1.302;2023-07-22T00:31:28;0.68;;;0.52;;
48651;SDS011;34442;52.362;-1.302;2023-07-22T00:33:53;2.15;;;1.00;;
48651;SDS011;34442;52.362;-1.302;2023-07-22T00:36:19;0.88;;;0.60;;
48651;SDS011;34442;52.362;-1.302;2023-07-22T00:38:44;1.23;;;0.75;;
48651;SDS011;34442;52.362;-1.302;2023-07-22T00:41:10;1.13;;;0.70;;
48651;SDS011;34442;52.362;-1.302;2023-07-22T00:43:36;1.50;;;0.77;;
48651;SDS011;34442;52.362;-1.302;2023-07-22T00:46:02;0.50;;;0.50;;
48651;SDS011;34442;52.362;-1.302;2023-07-22T00:48:28;0.60;;;0.60;;
48651;SDS011;34442;52.362;-1.302;2023-07-22T00:50:54;0.88;;;0.70;;
48651;SDS011;34442;52.362;-1.302;2023-07-22T00:53:19;1.77;;;0.98;;
48651;SDS011;34442;52.362;-1.302;2023-07-22T00:55:45;0.98;;;0.70;;
48651;SDS011;34442;52.362;-1.302;2023-07-22T00:58:10;1.25;;;0.77;;
48651;SDS011;34442;52.362;-1.302;2023-07-22T01:00:36;1.38;;;0.80;;
48651;SDS011;34442;52.362;-1.302;2023-07-22T01:03:02;1.42;;;0.90;;
48651;SDS011;34442;52.362;-1.302;2023-07-22T01:05:28;1.38;;;0.77;;
48651;SDS011;34442;52.362;-1.302;2023-07-22T01:07:56;0.82;;;0.70;;
48651;SDS011;34442;52.362;-1.302;2023-07-22T01:10:21;1.50;;;0.80;;
48651;SDS011;34442;52.362;-1.302;2023-07-22T01:12:47;1.10;;;0.70;;
48651;SDS011;34442;52.362;-1.302;2023-07-22T01:15:12;1.75;;;0.70;;
48651;SDS011;34442;52.362;-1.302;2023-07-22T01:17:39;1.83;;;0.85;;
48651;SDS011;34442;52.362;-1.302;2023-07-22T01:20:05;1.45;;;0.88;;
48651;SDS011;34442;52.362;-1.302;2023-07-22T01:22:34;1.27;;;0.90;;
48651;SDS011;34442;52.362;-1.302;2023-07-22T01:25:01;1.38;;;0.90;;
48651;SDS011;34442;52.362;-1.302;2023-07-22T01:27:27;1.67;;;0.90;;
48651;SDS011;34442;52.362;-1.302;2023-07-22T01:29:52;1.08;;;0.73;;
48651;SDS011;34442;52.362;-1.302;2023-07-22T01:32:18;2.03;;;1.00;;
48651;SDS011;34442;52.362;-1.302;2023-07-22T01:34:45;1.88;;;1.00;;
48651;SDS011;34442;52.362;-1.302;2023-07-22T01:37:10;1.50;;;0.90;;
48651;SDS011;34442;52.362;-1.302;2023-07-22T01:39:36;1.20;;;0.80;;
48651;SDS011;34442;52.362;-1.302;2023-07-22T01:42:01;0.68;;;0.68;;
48651;SDS011;34442;52.362;-1.302;2023-07-22T01:44:27;1.27;;;0.80;;
48651;SDS011;34442;52.362;-1.302;2023-07-22T01:46:53;0.93;;;0.73;;
48651;SDS011;34442;52.362;-1.302;2023-07-22T01:49:18;1.30;;;0.80;;
48651;SDS011;34442;52.362;-1.302;2023-07-22T01:51:44;1.70;;;1.08;;
48651;SDS011;34442;52.362;-1.302;2023-07-22T01:54:10;1.70;;;1.08;;
48651;SDS011;34442;52.362;-1.302;2023-07-22T01:56:36;1.42;;;0.80;;
48651;SDS011;34442;52.362;-1.302;2023-07-22T01:59:05;1.30;;;0.90;;
48651;SDS011;34442;52.362;-1.302;2023-07-22T02:01:31;1.63;;;1.00;;
48651;SDS011;34442;52.362;-1.302;2023-07-22T02:03:57;1.02;;;0.80;;
48651;SDS011;34442;52.362;-1.302;2023-07-22T02:06:22;2.42;;;1.13;;
48651;SDS011;34442;52.362;-1.302;2023-07-22T02:08:48;1.67;;;0.93;;
48651;SDS011;34442;52.362;-1.302;2023-07-22T02:11:13;1.75;;;1.00;;
48651;SDS011;34442;52.362;-1.302;2023-07-22T02:13:38;1.85;;;1.02;;
48651;SDS011;34442;52.362;-1.302;2023-07-22T02:16:04;1.65;;;0.75;;
48651;SDS011;34442;52.362;-1.302;2023-07-22T02:18:30;1.40;;;0.82;;
48651;SDS011;34442;52.362;-1.302;2023-07-22T02:20:55;2.75;;;1.30;;
48651;SDS011;34442;52.362;-1.302;2023-07-22T02:23:21;1.40;;;0.93;;
48651;SDS011;34442;52.362;-1.302;2023-07-22T02:25:51;2.33;;;1.33;;
48651;SDS011;34442;52.362;-1.302;2023-07-22T02:28:17;1.88;;;1.10;;
48651;SDS011;34442;52.362;-1.302;2023-07-22T02:30:50;2.22;;;1.10;;
48651;SDS011;34442;52.362;-1.302;2023-07-22T02:33:17;2.60;;;1.13;;
48651;SDS011;34442;52.362;-1.302;2023-07-22T02:35:43;1.67;;;1.05;;
48651;SDS011;34442;52.362;-1.302;2023-07-22T02:38:09;1.38;;;1.10;;
48651;SDS011;34442;52.362;-1.302;2023-07-22T02:40:35;1.38;;;0.90;;
48651;SDS011;34442;52.362;-1.302;2023-07-22T02:43:01;1.52;;;0.90;;
48651;SDS011;34442;52.362;-1.302;2023-07-22T02:45:26;1.30;;;0.90;;
48651;SDS011;34442;52.362;-1.302;2023-07-22T02:47:52;2.13;;;1.23;;
48651;SDS011;34442;52.362;-1.302;2023-07-22T02:50:17;1.58;;;1.02;;
48651;SDS011;34442;52.362;-1.302;2023-07-22T02:52:43;2.05;;;1.00;;
48651;SDS011;34442;52.362;-1.302;2023-07-22T02:55:13;0.90;;;0.80;;
48651;SDS011;34442;52.362;-1.302;2023-07-22T02:57:42;2.42;;;1.20;;
48651;SDS011;34442;52.362;-1.302;2023-07-22T03:00:07;1.40;;;0.98;;
48651;SDS011;34442;52.362;-1.302;2023-07-22T03:02:37;1.40;;;1.00;;
48651;SDS011;34442;52.362;-1.302;2023-07-22T03:05:04;1.02;;;0.90;;
48651;SDS011;34442;52.362;-1.302;2023-07-22T03:07:33;2.08;;;1.10;;
48651;SDS011;34442;52.362;-1.302;2023-07-22T03:09:59;1.85;;;1.10;;
48651;SDS011;34442;52.362;-1.302;2023-07-22T03:12:24;2.17;;;1.20;;
48651;SDS011;34442;52.362;-1.302;2023-07-22T03:14:50;1.73;;;0.93;;
48651;SDS011;34442;52.362;-1.302;2023-07-22T03:17:17;2.13;;;1.20;;
48651;SDS011;34442;52.362;-1.302;2023-07-22T03:19:43;1.60;;;1.10;;
48651;SDS011;34442;52.362;-1.302;2023-07-22T03:22:09;1.83;;;1.17;;
48651;SDS011;34442;52.362;-1.302;2023-07-22T03:24:35;4.00;;;1.40;;
48651;SDS011;34442;52.362;-1.302;2023-07-22T03:27:00;1.83;;;1.27;;
48651;SDS011;34442;52.362;-1.302;2023-07-22T03:29:26;2.53;;;1.30;;
48651;SDS011;34442;52.362;-1.302;2023-07-22T03:31:52;2.60;;;1.40;;
48651;SDS011;34442;52.362;-1.302;2023-07-22T03:34:18;3.17;;;1.40;;
48651;SDS011;34442;52.362;-1.302;2023-07-22T03:36:43;2.13;;;1.30;;
48651;SDS011;34442;52.362;-1.302;2023-07-22T03:39:09;3.13;;;1.35;;
48651;SDS011;34442;52.362;-1.302;2023-07-22T03:41:34;3.42;;;1.55;;
48651;SDS011;34442;52.362;-1.302;2023-07-22T03:43:59;3.83;;;1.70;;
48651;SDS011;34442;52.362;-1.302;2023-07-22T03:46:25;2.90;;;1.52;;
48651;SDS011;34442;52.362;-1.302;2023-07-22T03:48:50;4.75;;;1.75;;
48651;SDS011;34442;52.362;-1.302;2023-07-22T03:51:15;2.35;;;1.40;;
48651;SDS011;34442;52.362;-1.302;2023-07-22T03:53:41;2.67;;;1.45;;
48651;SDS011;34442;52.362;-1.302;2023-07-22T03:56:07;4.03;;;1.92;;
48651;SDS011;34442;52.362;-1.302;2023-07-22T03:58:32;3.67;;;1.70;;
48651;SDS011;34442;52.362;-1.302;2023-07-22T04:00:58;3.15;;;1.63;;
48651;SDS011;34442;52.362;-1.302;2023-07-22T04:03:23;3.13;;;1.95;;
48651;SDS011;34442;52.362;-1.302;2023-07-22T04:05:55;3.17;;;1.48;;
48651;SDS011;34442;52.362;-1.302;2023-07-22T04:08:21;2.58;;;1.35;;
48651;SDS011;34442;52.362;-1.302;2023-07-22T04:10:53;2.75;;;1.52;;
48651;SDS011;34442;52.362;-1.302;2023-07-22T04:13:18;3.10;;;1.65;;
48651;SDS011;34442;52.362;-1.302;2023-07-22T04:15:44;3.17;;;1.42;;
48651;SDS011;34442;52.362;-1.302;2023-07-22T04:18:09;3.60;;;1.50;;
48651;SDS011;34442;52.362;-1.302;2023-07-22T04:20:35;4.00;;;1.77;;
48651;SDS011;34442;52.362;-1.302;2023-07-22T04:23:01;2.90;;;1.55;;
48651;SDS011;34442;52.362;-1.302;2023-07-22T04:25:26;4.10;;;1.67;;
48651;SDS011;34442;52.362;-1.302;2023-07-22T04:27:51;2.35;;;1.42;;
48651;SDS011;34442;52.362;-1.302;2023-07-22T04:30:17;2.95;;;1.67;;
48651;SDS011;34442;52.362;-1.302;2023-07-22T04:32:47;3.05;;;1.55;;
48651;SDS011;34442;52.362;-1.302;2023-07-22T04:35:16;3.70;;;1.60;;
48651;SDS011;34442;52.362;-1.302;2023-07-22T04:37:45;3.00;;;1.30;;
48651;SDS011;34442;52.362;-1.302;2023-07-22T04:40:11;2.33;;;1.00;;
48651;SDS011;34442;52.362;-1.302;2023-07-22T04:42:41;2.13;;;1.30;;
48651;SDS011;34442;52.362;-1.302;2023-07-22T04:45:07;2.85;;;1.40;;
48651;SDS011;34442;52.362;-1.302;2023-07-22T04:47:35;2.72;;;1.60;;
48651;SDS011;34442;52.362;-1.302;2023-07-22T04:50:00;2.35;;;1.50;;
48651;SDS011;34442;52.362;-1.302;2023-07-22T04:52:26;2.15;;;1.08;;
48651;SDS011;34442;52.362;-1.302;2023-07-22T04:54:51;3.47;;;1.63;;
48651;SDS011;34442;52.362;-1.302;2023-07-22T04:57:18;2.83;;;1.50;;
48651;SDS011;34442;52.362;-1.302;2023-07-22T04:59:45;3.55;;;1.20;;
48651;SDS011;34442;52.362;-1.302;2023-07-22T05:02:10;3.17;;;1.80;;
48651;SDS011;34442;52.362;-1.302;2023-07-22T05:04:35;4.30;;;1.75;;
48651;SDS011;34442;52.362;-1.302;2023-07-22T05:07:02;3.03;;;1.48;;
48651;SDS011;34442;52.362;-1.302;2023-07-22T05:09:27;3.33;;;1.65;;
48651;SDS011;34442;52.362;-1.302;2023-07-22T05:11:52;4.32;;;1.60;;
48651;SDS011;34442;52.362;-1.302;2023-07-22T05:14:21;2.78;;;1.50;;
48651;SDS011;34442;52.362;-1.302;2023-07-22T05:16:46;2.67;;;1.45;;
48651;SDS011;34442;52.362;-1.302;2023-07-22T05:19:12;3.75;;;1.70;;
48651;SDS011;34442;52.362;-1.302;2023-07-22T05:21:37;3.75;;;1.70;;
48651;SDS011;34442;52.362;-1.302;2023-07-22T05:24:02;1.90;;;1.20;;
48651;SDS011;34442;52.362;-1.302;2023-07-22T05:26:28;2.90;;;1.40;;
48651;SDS011;34442;52.362;-1.302;2023-07-22T05:28:53;2.00;;;1.48;;
48651;SDS011;34442;52.362;-1.302;2023-07-22T05:31:19;3.60;;;1.70;;
48651;SDS011;34442;52.362;-1.302;2023-07-22T05:33:44;2.20;;;1.25;;
48651;SDS011;34442;52.362;-1.302;2023-07-22T05:36:09;3.30;;;1.52;;
48651;SDS011;34442;52.362;-1.302;2023-07-22T05:38:35;3.65;;;1.70;;
48651;SDS011;34442;52.362;-1.302;2023-07-22T05:41:00;3.30;;;1.50;;
48651;SDS011;34442;52.362;-1.302;2023-07-22T05:43:26;3.40;;;1.48;;
48651;SDS011;34442;52.362;-1.302;2023-07-22T05:45:51;2.30;;;1.20;;
48651;SDS011;34442;52.362;-1.302;2023-07-22T05:48:16;1.92;;;1.10;;
48651;SDS011;34442;52.362;-1.302;2023-07-22T05:50:42;2.15;;;1.10;;
48651;SDS011;34442;52.362;-1.302;2023-07-22T05:53:07;2.40;;;1.27;;
48651;SDS011;34442;52.362;-1.302;2023-07-22T05:55:33;1.73;;;1.10;;
48651;SDS011;34442;52.362;-1.302;2023-07-22T05:57:58;2.63;;;1.27;;
48651;SDS011;34442;52.362;-1.302;2023-07-22T06:00:30;1.83;;;1.02;;
48651;SDS011;34442;52.362;-1.302;2023-07-22T06:02:56;2.58;;;1.30;;
48651;SDS011;34442;52.362;-1.302;2023-07-22T06:05:21;3.25;;;1.40;;
48651;SDS011;34442;52.362;-1.302;2023-07-22T06:07:46;3.45;;;1.45;;
48651;SDS011;34442;52.362;-1.302;2023-07-22T06:10:12;3.95;;;1.70;;
48651;SDS011;34442;52.362;-1.302;2023-07-22T06:12:37;3.22;;;1.38;;
48651;SDS011;34442;52.362;-1.302;2023-07-22T06:15:03;1.65;;;0.90;;
48651;SDS011;34442;52.362;-1.302;2023-07-22T06:17:29;2.75;;;1.23;;
48651;SDS011;34442;52.362;-1.302;2023-07-22T06:19:54;2.10;;;1.08;;
48651;SDS011;34442;52.362;-1.302;2023-07-22T06:22:20;3.63;;;1.92;;
48651;SDS011;34442;52.362;-1.302;2023-07-22T06:24:45;2.30;;;1.30;;
48651;SDS011;34442;52.362;-1.302;2023-07-22T06:27:10;2.25;;;1.33;;
48651;SDS011;34442;52.362;-1.302;2023-07-22T06:29:36;2.00;;;1.13;;
48651;SDS011;34442;52.362;-1.302;2023-07-22T06:32:01;2.95;;;1.30;;
48651;SDS011;34442;52.362;-1.302;2023-07-22T06:34:27;2.05;;;1.20;;
48651;SDS011;34442;52.362;-1.302;2023-07-22T06:36:53;2.10;;;1.15;;
48651;SDS011;34442;52.362;-1.302;2023-07-22T06:39:21;2.67;;;1.40;;
48651;SDS011;34442;52.362;-1.302;2023-07-22T06:41:46;2.83;;;1.30;;
48651;SDS011;34442;52.362;-1.302;2023-07-22T06:44:12;2.17;;;1.20;;
48651;SDS011;34442;52.362;-1.302;2023-07-22T06:46:37;2.22;;;1.25;;
48651;SDS011;34442;52.362;-1.302;2023-07-22T06:49:02;2.80;;;1.33;;
48651;SDS011;34442;52.362;-1.302;2023-07-22T06:51:28;3.28;;;1.45;;
48651;SDS011;34442;52.362;-1.302;2023-07-22T06:53:53;2.42;;;1.40;;
48651;SDS011;34442;52.362;-1.302;2023-07-22T06:56:19;3.38;;;1.55;;
48651;SDS011;34442;52.362;-1.302;2023-07-22T06:58:44;2.33;;;1.40;;
48651;SDS011;34442;52.362;-1.302;2023-07-22T07:01:09;3.22;;;1.40;;
48651;SDS011;34442;52.362;-1.302;2023-07-22T07:03:35;3.88;;;1.63;;
48651;SDS011;34442;52.362;-1.302;2023-07-22T07:06:00;3.70;;;1.60;;
48651;SDS011;34442;52.362;-1.302;2023-07-22T07:08:26;3.30;;;1.50;;
48651;SDS011;34442;52.362;-1.302;2023-07-22T07:10:52;4.05;;;1.70;;
48651;SDS011;34442;52.362;-1.302;2023-07-22T07:13:17;3.33;;;1.52;;
48651;SDS011;34442;52.362;-1.302;2023-07-22T07:15:46;2.70;;;1.35;;
48651;SDS011;34442;52.362;-1.302;2023-07-22T07:20:43;2.97;;;1.30;;
48651;SDS011;34442;52.362;-1.302;2023-07-22T07:23:08;3.15;;;1.50;;
48651;SDS011;34442;52.362;-1.302;2023-07-22T07:25:34;3.10;;;1.58;;
48651;SDS011;34442;52.362;-1.302;2023-07-22T07:27:59;2.28;;;1.23;;
48651;SDS011;34442;52.362;-1.302;2023-07-22T07:30:24;3.65;;;1.67;;
48651;SDS011;34442;52.362;-1.302;2023-07-22T07:32:50;2.42;;;1.30;;
48651;SDS011;34442;52.362;-1.302;2023-07-22T07:35:15;4.32;;;1.55;;
48651;SDS011;34442;52.362;-1.302;2023-07-22T07:37:41;3.60;;;1.65;;
48651;SDS011;34442;52.362;-1.302;2023-07-22T07:40:06;3.85;;;1.65;;
48651;SDS011;34442;52.362;-1.302;2023-07-22T07:42:33;2.83;;;1.45;;
48651;SDS011;34442;52.362;-1.302;2023-07-22T07:44:58;3.17;;;1.85;;
48651;SDS011;34442;52.362;-1.302;2023-07-22T07:47:24;3.85;;;1.80;;
48651;SDS011;34442;52.362;-1.302;2023-07-22T07:49:49;4.68;;;1.95;;
48651;SDS011;34442;52.362;-1.302;2023-07-22T07:52:15;2.83;;;1.40;;
48651;SDS011;34442;52.362;-1.302;2023-07-22T07:54:40;6.65;;;1.77;;
48651;SDS011;34442;52.362;-1.302;2023-07-22T07:57:05;2.78;;;1.35;;
48651;SDS011;34442;52.362;-1.302;2023-07-22T07:59:31;3.28;;;1.67;;
48651;SDS011;34442;52.362;-1.302;2023-07-22T08:01:56;3.65;;;1.60;;
48651;SDS011;34442;52.362;-1.302;2023-07-22T08:04:22;4.05;;;1.80;;
48651;SDS011;34442;52.362;-1.302;2023-07-22T08:06:48;3.33;;;1.80;;
48651;SDS011;34442;52.362;-1.302;2023-07-22T08:09:14;3.42;;;1.67;;
48651;SDS011;34442;52.362;-1.302;2023-07-22T08:11:44;3.83;;;1.80;;
48651;SDS011;34442;52.362;-1.302;2023-07-22T08:14:09;3.13;;;1.55;;
48651;SDS011;34442;52.362;-1.302;2023-07-22T08:16:35;3.97;;;1.98;;
48651;SDS011;34442;52.362;-1.302;2023-07-22T08:19:00;3.72;;;1.98;;
48651;SDS011;34442;52.362;-1.302;2023-07-22T08:21:26;3.28;;;1.55;;
48651;SDS011;34442;52.362;-1.302;2023-07-22T08:23:51;3.92;;;1.80;;
48651;SDS011;34442;52.362;-1.302;2023-07-22T08:26:17;4.32;;;1.80;;
48651;SDS011;34442;52.362;-1.302;2023-07-22T08:28:46;3.53;;;1.83;;
48651;SDS011;34442;52.362;-1.302;2023-07-22T08:31:12;4.55;;;1.70;;
48651;SDS011;34442;52.362;-1.302;2023-07-22T08:33:37;3.05;;;1.58;;
48651;SDS011;34442;52.362;-1.302;2023-07-22T08:36:03;3.85;;;1.80;;
48651;SDS011;34442;52.362;-1.302;2023-07-22T08:38:28;3.42;;;1.70;;
48651;SDS011;34442;52.362;-1.302;2023-07-22T08:40:54;4.15;;;2.17;;
48651;SDS011;34442;52.362;-1.302;2023-07-22T08:43:20;3.67;;;1.50;;
48651;SDS011;34442;52.362;-1.302;2023-07-22T08:45:47;3.55;;;1.80;;
48651;SDS011;34442;52.362;-1.302;2023-07-22T08:48:15;3.75;;;1.90;;
48651;SDS011;34442;52.362;-1.302;2023-07-22T08:50:50;3.83;;;1.70;;
48651;SDS011;34442;52.362;-1.302;2023-07-22T08:53:18;4.60;;;2.13;;
48651;SDS011;34442;52.362;-1.302;2023-07-22T08:55:47;3.80;;;1.67;;
48651;SDS011;34442;52.362;-1.302;2023-07-22T08:58:15;3.45;;;1.50;;
48651;SDS011;34442;52.362;-1.302;2023-07-22T09:00:41;3.00;;;1.42;;
48651;SDS011;34442;52.362;-1.302;2023-07-22T09:03:08;3.85;;;2.00;;
48651;SDS011;34442;52.362;-1.302;2023-07-22T09:05:35;4.10;;;1.83;;
48651;SDS011;34442;52.362;-1.302;2023-07-22T09:08:01;3.38;;;1.58;;
48651;SDS011;34442;52.362;-1.302;2023-07-22T09:10:28;4.22;;;2.33;;
48651;SDS011;34442;52.362;-1.302;2023-07-22T09:12:54;3.47;;;1.60;;
48651;SDS011;34442;52.362;-1.302;2023-07-22T09:15:20;3.78;;;2.10;;
48651;SDS011;34442;52.362;-1.302;2023-07-22T09:17:46;5.60;;;2.53;;
48651;SDS011;34442;52.362;-1.302;2023-07-22T09:20:12;3.92;;;1.88;;
48651;SDS011;34442;52.362;-1.302;2023-07-22T09:22:42;4.00;;;2.30;;
48651;SDS011;34442;52.362;-1.302;2023-07-22T09:25:21;4.05;;;1.88;;
48651;SDS011;34442;52.362;-1.302;2023-07-22T09:27:49;4.03;;;2.08;;
48651;SDS011;34442;52.362;-1.302;2023-07-22T09:30:27;3.30;;;1.85;;
48651;SDS011;34442;52.362;-1.302;2023-07-22T09:32:57;6.97;;;1.98;;
48651;SDS011;34442;52.362;-1.302;2023-07-22T09:35:26;4.22;;;1.80;;
48651;SDS011;34442;52.362;-1.302;2023-07-22T09:37:55;4.43;;;2.05;;
48651;SDS011;34442;52.362;-1.302;2023-07-22T09:40:25;4.82;;;2.38;;
48651;SDS011;34442;52.362;-1.302;2023-07-22T09:42:54;3.95;;;1.90;;
48651;SDS011;34442;52.362;-1.302;2023-07-22T09:45:21;4.38;;;2.20;;
48651;SDS011;34442;52.362;-1.302;2023-07-22T09:47:48;5.95;;;2.45;;
48651;SDS011;34442;52.362;-1.302;2023-07-22T09:50:19;4.65;;;2.28;;
48651;SDS011;34442;52.362;-1.302;2023-07-22T09:52:56;4.45;;;2.00;;
48651;SDS011;34442;52.362;-1.302;2023-07-22T09:55:29;5.70;;;2.17;;
48651;SDS011;34442;52.362;-1.302;2023-07-22T09:58:00;4.22;;;2.00;;
48651;SDS011;34442;52.362;-1.302;2023-07-22T10:00:33;4.22;;;1.98;;
48651;SDS011;34442;52.362;-1.302;2023-07-22T10:03:00;4.50;;;2.22;;
48651;SDS011;34442;52.362;-1.302;2023-07-22T10:05:27;4.75;;;1.88;;
48651;SDS011;34442;52.362;-1.302;2023-07-22T10:07:57;4.05;;;2.13;;
48651;SDS011;34442;52.362;-1.302;2023-07-22T10:10:25;4.60;;;2.20;;
48651;SDS011;34442;52.362;-1.302;2023-07-22T10:12:55;5.80;;;2.33;;
48651;SDS011;34442;52.362;-1.302;2023-07-22T10:15:21;5.07;;;2.40;;
48651;SDS011;34442;52.362;-1.302;2023-07-22T10:17:49;4.30;;;2.10;;
48651;SDS011;34442;52.362;-1.302;2023-07-22T10:20:15;4.60;;;1.98;;
48651;SDS011;34442;52.362;-1.302;2023-07-22T10:22:42;4.70;;;2.28;;
48651;SDS011;34442;52.362;-1.302;2023-07-22T10:25:10;4.20;;;2.20;;
48651;SDS011;34442;52.362;-1.302;2023-07-22T10:27:38;4.53;;;2.30;;
48651;SDS011;34442;52.362;-1.302;2023-07-22T10:35:04;4.97;;;2.25;;
48651;SDS011;34442;52.362;-1.302;2023-07-22T10:37:33;4.43;;;2.33;;
48651;SDS011;34442;52.362;-1.302;2023-07-22T10:39:59;4.85;;;2.40;;
48651;SDS011;34442;52.362;-1.302;2023-07-22T10:43:04;3.67;;;2.10;;
48651;SDS011;34442;52.362;-1.302;2023-07-22T10:45:39;5.28;;;2.38;;
48651;SDS011;34442;52.362;-1.302;2023-07-22T10:48:07;4.72;;;2.25;;
48651;SDS011;34442;52.362;-1.302;2023-07-22T10:50:46;4.80;;;2.20;;
48651;SDS011;34442;52.362;-1.302;2023-07-22T10:56:05;4.75;;;2.20;;
48651;SDS011;34442;52.362;-1.302;2023-07-22T11:06:30;4.38;;;2.08;;
48651;SDS011;34442;52.362;-1.302;2023-07-22T11:08:56;4.18;;;2.10;;
48651;SDS011;34442;52.362;-1.302;2023-07-22T11:11:33;4.80;;;2.50;;
48651;SDS011;34442;52.362;-1.302;2023-07-22T11:14:16;4.00;;;1.80;;
48651;SDS011;34442;52.362;-1.302;2023-07-22T11:16:44;3.55;;;1.98;;
48651;SDS011;34442;52.362;-1.302;2023-07-22T11:19:12;4.18;;;2.10;;
48651;SDS011;34442;52.362;-1.302;2023-07-22T11:21:38;3.78;;;1.70;;
48651;SDS011;34442;52.362;-1.302;2023-07-22T11:24:04;3.55;;;1.90;;
48651;SDS011;34442;52.362;-1.302;2023-07-22T11:26:30;3.38;;;1.70;;
48651;SDS011;34442;52.362;-1.302;2023-07-22T11:28:56;3.60;;;1.95;;
48651;SDS011;34442;52.362;-1.302;2023-07-22T11:31:22;4.60;;;1.90;;
48651;SDS011;34442;52.362;-1.302;2023-07-22T11:33:47;4.45;;;2.20;;
48651;SDS011;34442;52.362;-1.302;2023-07-22T11:36:13;6.55;;;2.40;;
48651;SDS011;34442;52.362;-1.302;2023-07-22T11:38:38;4.40;;;2.15;;
48651;SDS011;34442;52.362;-1.302;2023-07-22T11:41:04;5.05;;;2.65;;
48651;SDS011;34442;52.362;-1.302;2023-07-22T11:43:30;4.03;;;2.05;;
48651;SDS011;34442;52.362;-1.302;2023-07-22T11:45:56;6.53;;;2.42;;
48651;SDS011;34442;52.362;-1.302;2023-07-22T11:48:22;3.53;;;1.67;;
48651;SDS011;34442;52.362;-1.302;2023-07-22T11:50:47;4.05;;;2.00;;
48651;SDS011;34442;52.362;-1.302;2023-07-22T11:53:13;4.15;;;1.90;;
48651;SDS011;34442;52.362;-1.302;2023-07-22T11:55:39;3.55;;;1.58;;
48651;SDS011;34442;52.362;-1.302;2023-07-22T11:58:05;4.60;;;2.47;;
48651;SDS011;34442;52.362;-1.302;2023-07-22T12:00:32;3.22;;;1.58;;
48651;SDS011;34442;52.362;-1.302;2023-07-22T12:03:04;3.92;;;1.55;;
48651;SDS011;34442;52.362;-1.302;2023-07-22T12:05:30;3.72;;;1.67;;
48651;SDS011;34442;52.362;-1.302;2023-07-22T12:08:00;4.65;;;1.80;;
48651;SDS011;34442;52.362;-1.302;2023-07-22T12:10:29;4.43;;;2.13;;
48651;SDS011;34442;52.362;-1.302;2023-07-22T12:12:54;3.90;;;1.70;;
48651;SDS011;34442;52.362;-1.302;2023-07-22T12:15:20;3.47;;;1.67;;
48651;SDS011;34442;52.362;-1.302;2023-07-22T12:17:56;3.45;;;1.42;;
48651;SDS011;34442;52.362;-1.302;2023-07-22T12:22:51;4.50;;;2.05;;
48651;SDS011;34442;52.362;-1.302;2023-07-22T12:25:17;3.72;;;1.73;;
48651;SDS011;34442;52.362;-1.302;2023-07-22T12:27:43;3.65;;;1.90;;
48651;SDS011;34442;52.362;-1.302;2023-07-22T12:30:09;3.35;;;1.60;;
48651;SDS011;34442;52.362;-1.302;2023-07-22T12:32:35;4.43;;;1.95;;
48651;SDS011;34442;52.362;-1.302;2023-07-22T12:35:01;3.03;;;1.65;;
48651;SDS011;34442;52.362;-1.302;2023-07-22T12:37:28;3.65;;;1.80;;
48651;SDS011;34442;52.362;-1.302;2023-07-22T12:39:53;4.00;;;1.40;;
48651;SDS011;34442;52.362;-1.302;2023-07-22T12:42:19;2.97;;;1.45;;
48651;SDS011;34442;52.362;-1.302;2023-07-22T12:44:44;3.67;;;1.55;;
48651;SDS011;34442;52.362;-1.302;2023-07-22T12:47:10;2.92;;;1.40;;
48651;SDS011;34442;52.362;-1.302;2023-07-22T12:49:36;3.60;;;1.40;;
48651;SDS011;34442;52.362;-1.302;2023-07-22T12:52:01;3.45;;;1.40;;
48651;SDS011;34442;52.362;-1.302;2023-07-22T12:54:32;3.15;;;1.42;;
48651;SDS011;34442;52.362;-1.302;2023-07-22T12:56:58;4.40;;;1.92;;
48651;SDS011;34442;52.362;-1.302;2023-07-22T12:59:23;3.20;;;1.40;;
48651;SDS011;34442;52.362;-1.302;2023-07-22T13:01:49;3.15;;;1.40;;
48651;SDS011;34442;52.362;-1.302;2023-07-22T13:04:14;2.78;;;1.35;;
48651;SDS011;34442;52.362;-1.302;2023-07-22T13:06:39;3.67;;;1.95;;
48651;SDS011;34442;52.362;-1.302;2023-07-22T13:09:05;3.75;;;1.55;;
48651;SDS011;34442;52.362;-1.302;2023-07-22T13:11:30;2.53;;;1.20;;
48651;SDS011;34442;52.362;-1.302;2023-07-22T13:13:56;3.20;;;1.42;;
48651;SDS011;34442;52.362;-1.302;2023-07-22T13:16:21;3.13;;;1.45;;
48651;SDS011;34442;52.362;-1.302;2023-07-22T13:18:46;3.13;;;1.50;;
48651;SDS011;34442;52.362;-1.302;2023-07-22T13:21:12;2.72;;;1.50;;
48651;SDS011;34442;52.362;-1.302;2023-07-22T13:23:37;3.67;;;1.50;;
48651;SDS011;34442;52.362;-1.302;2023-07-22T13:26:02;3.40;;;1.27;;
48651;SDS011;34442;52.362;-1.302;2023-07-22T13:28:28;3.25;;;1.50;;
48651;SDS011;34442;52.362;-1.302;2023-07-22T13:30:53;2.60;;;1.38;;
48651;SDS011;34442;52.362;-1.302;2023-07-22T13:33:18;3.42;;;1.60;;
48651;SDS011;34442;52.362;-1.302;2023-07-22T13:35:44;3.00;;;1.70;;
48651;SDS011;34442;52.362;-1.302;2023-07-22T13:38:09;2.88;;;1.33;;
48651;SDS011;34442;52.362;-1.302;2023-07-22T13:40:35;3.30;;;1.65;;
48651;SDS011;34442;52.362;-1.302;2023-07-22T13:43:01;3.35;;;1.45;;
48651;SDS011;34442;52.362;-1.302;2023-07-22T13:45:26;2.88;;;1.33;;
48651;SDS011;34442;52.362;-1.302;2023-07-22T13:47:52;3.78;;;1.58;;
48651;SDS011;34442;52.362;-1.302;2023-07-22T13:50:17;3.83;;;1.50;;
48651;SDS011;34442;52.362;-1.302;2023-07-22T13:52:43;3.47;;;1.75;;
48651;SDS011;34442;52.362;-1.302;2023-07-22T13:55:09;3.15;;;1.65;;
48651;SDS011;34442;52.362;-1.302;2023-07-22T13:57:35;3.35;;;1.42;;
48651;SDS011;34442;52.362;-1.302;2023-07-22T14:00:00;2.95;;;1.52;;
48651;SDS011;34442;52.362;-1.302;2023-07-22T14:02:25;3.65;;;1.80;;
48651;SDS011;34442;52.362;-1.302;2023-07-22T14:04:51;3.03;;;1.38;;
48651;SDS011;34442;52.362;-1.302;2023-07-22T14:07:19;2.72;;;1.33;;
48651;SDS011;34442;52.362;-1.302;2023-07-22T14:09:44;3.17;;;1.60;;
48651;SDS011;34442;52.362;-1.302;2023-07-22T14:12:10;3.90;;;1.63;;
48651;SDS011;34442;52.362;-1.302;2023-07-22T14:14:36;4.65;;;1.70;;
48651;SDS011;34442;52.362;-1.302;2023-07-22T14:17:01;3.42;;;1.52;;
48651;SDS011;34442;52.362;-1.302;2023-07-22T14:19:27;4.88;;;1.50;;
48651;SDS011;34442;52.362;-1.302;2023-07-22T14:21:53;2.63;;;1.25;;
48651;SDS011;34442;52.362;-1.302;2023-07-22T14:24:18;2.55;;;1.30;;
48651;SDS011;34442;52.362;-1.302;2023-07-22T14:26:43;3.00;;;1.30;;
48651;SDS011;34442;52.362;-1.302;2023-07-22T14:29:09;2.33;;;1.10;;
48651;SDS011;34442;52.362;-1.302;2023-07-22T14:31:34;2.45;;;1.10;;
48651;SDS011;34442;52.362;-1.302;2023-07-22T14:34:00;3.20;;;1.65;;
48651;SDS011;34442;52.362;-1.302;2023-07-22T14:36:25;2.67;;;1.10;;
48651;SDS011;34442;52.362;-1.302;2023-07-22T14:38:51;2.08;;;1.23;;
48651;SDS011;34442;52.362;-1.302;2023-07-22T14:41:17;2.50;;;1.10;;
48651;SDS011;34442;52.362;-1.302;2023-07-22T14:43:42;1.70;;;1.02;;
48651;SDS011;34442;52.362;-1.302;2023-07-22T14:46:08;2.75;;;1.25;;
48651;SDS011;34442;52.362;-1.302;2023-07-22T14:48:33;2.25;;;1.15;;
48651;SDS011;34442;52.362;-1.302;2023-07-22T14:50:59;2.22;;;1.00;;